Time;durP1;ratioP1;P1;durP2;ratioP2;P2;SDS_P1;SDS_P2;PMS_P1;PMS_P2;Temp;Humidity;BMP_temperature;BMP_pressure;BME280_temperature;BME280_humidity;BME280_pressure;Samples;Min_cycle;Max_cycle;Signal;HPM_P1;HPM_P2
2023/01/06 00:01:01;;;;;;;16.38;5.63;;;;;;;10.16;100.00;101777.31;4956144;29;20162;-72
2023/01/06 00:03:26;;;;;;;11.05;5.30;;;;;;;10.17;100.00;101768.53;4956253;29;20023;-72
2023/01/06 00:05:56;;;;;;;12.57;5.10;;;;;;;10.14;100.00;101766.69;4956230;29;20027;-72
2023/01/06 00:08:22;;;;;;;13.35;5.40;;;;;;;10.15;100.00;101765.88;4956097;28;20110;-72
2023/01/06 00:10:47;;;;;;;14.40;5.18;;;;;;;10.17;100.00;101757.97;4956120;29;20023;-72
2023/01/06 00:13:13;;;;;;;12.93;5.45;;;;;;;10.16;100.00;101756.19;4955576;28;20029;-71
2023/01/06 00:15:38;;;;;;;9.77;5.43;;;;;;;10.16;100.00;101750.91;4956026;29;20104;-72
2023/01/06 00:18:03;;;;;;;13.60;5.40;;;;;;;10.12;100.00;101755.22;4956085;29;20505;-72
2023/01/06 00:20:29;;;;;;;13.45;4.78;;;;;;;10.15;100.00;101757.94;4956159;28;20023;-72
2023/01/06 00:22:54;;;;;;;13.70;5.15;;;;;;;10.14;100.00;101740.28;4922906;29;20039;-71
2023/01/06 00:25:20;;;;;;;10.98;4.85;;;;;;;10.15;100.00;101735.91;4956026;28;20034;-71
2023/01/06 00:27:45;;;;;;;7.88;4.57;;;;;;;10.18;100.00;101741.28;4955814;29;20366;-71
2023/01/06 00:30:11;;;;;;;9.88;4.55;;;;;;;10.15;100.00;101750.03;4955552;29;20117;-72
2023/01/06 00:32:37;;;;;;;10.00;4.47;;;;;;;10.18;100.00;101749.19;4955979;28;20034;-72
2023/01/06 00:35:02;;;;;;;7.95;4.60;;;;;;;10.20;100.00;101752.78;4938448;29;20377;-72
2023/01/06 00:37:28;;;;;;;13.27;4.20;;;;;;;10.19;100.00;101743.97;4955803;28;20026;-72
2023/01/06 00:39:53;;;;;;;8.45;4.32;;;;;;;10.19;100.00;101740.41;4955859;28;20070;-72
2023/01/06 00:42:19;;;;;;;12.45;4.20;;;;;;;10.19;100.00;101738.69;4955520;29;20036;-72
2023/01/06 00:44:45;;;;;;;11.35;3.80;;;;;;;10.20;100.00;101736.94;4955452;29;20039;-71
2023/01/06 00:47:11;;;;;;;6.35;3.90;;;;;;;10.19;100.00;101736.06;4955268;28;20141;-71
2023/01/06 00:49:36;;;;;;;7.00;3.97;;;;;;;10.21;100.00;101736.09;4955539;29;20106;-71
2023/01/06 00:52:02;;;;;;;10.65;4.10;;;;;;;10.21;100.00;101739.63;4955425;29;20050;-71
2023/01/06 00:54:28;;;;;;;9.90;4.00;;;;;;;10.18;100.00;101731.59;4955375;29;20039;-71
2023/01/06 00:56:54;;;;;;;10.40;4.30;;;;;;;10.20;100.00;101747.50;4955391;28;20388;-71
2023/01/06 00:59:23;;;;;;;9.85;3.95;;;;;;;10.18;100.00;101743.91;4955387;29;20067;-72
2023/01/06 01:01:56;;;;;;;11.07;3.85;;;;;;;10.16;100.00;101741.25;4954908;29;20109;-71
2023/01/06 01:04:22;;;;;;;8.90;3.83;;;;;;;10.18;100.00;101743.91;4955241;29;20027;-71
2023/01/06 01:06:49;;;;;;;7.82;3.67;;;;;;;10.16;100.00;101732.44;4955435;29;20031;-71
2023/01/06 01:09:27;;;;;;;9.80;3.92;;;;;;;10.17;100.00;101740.38;4955061;29;20023;-72
2023/01/06 01:12:09;;;;;;;9.80;3.70;;;;;;;10.16;100.00;101746.53;4955267;29;20043;-71
2023/01/06 01:14:46;;;;;;;7.60;4.03;;;;;;;10.16;100.00;101729.78;4955304;29;20358;-71
2023/01/06 01:17:14;;;;;;;7.18;3.53;;;;;;;10.15;100.00;101728.91;4955186;29;20062;-71
2023/01/06 01:19:40;;;;;;;9.07;3.78;;;;;;;10.16;100.00;101728.03;4954989;28;20039;-71
2023/01/06 01:22:06;;;;;;;7.07;3.60;;;;;;;10.16;100.00;101732.44;4955011;28;20035;-71
2023/01/06 01:24:32;;;;;;;7.68;3.20;;;;;;;10.18;100.00;101725.44;4954367;28;20524;-71
2023/01/06 01:26:58;;;;;;;7.18;3.13;;;;;;;10.20;100.00;101729.91;4954886;29;20544;-71
2023/01/06 01:29:24;;;;;;;7.63;3.15;;;;;;;10.19;100.00;101725.50;4955105;29;20027;-71
2023/01/06 01:31:49;;;;;;;6.97;3.10;;;;;;;10.19;100.00;101724.56;4954708;29;20034;-71
2023/01/06 01:34:16;;;;;;;6.30;2.92;;;;;;;10.20;100.00;101724.63;4954873;29;20389;-71
2023/01/06 01:36:43;;;;;;;9.55;2.88;;;;;;;10.21;100.00;101723.75;4955133;29;20028;-71
2023/01/06 01:39:10;;;;;;;6.53;2.53;;;;;;;10.22;100.00;101714.09;4954950;29;20393;-71
2023/01/06 01:41:36;;;;;;;6.43;2.72;;;;;;;10.18;100.00;101706.94;4954801;29;20023;-71
2023/01/06 01:44:41;;;;;;;7.93;2.83;;;;;;;10.24;100.00;101704.47;4954680;29;20374;-71
2023/01/06 01:47:07;;;;;;;10.73;3.08;;;;;;;10.21;100.00;101699.09;4954385;29;20390;-71
2023/01/06 01:49:36;;;;;;;7.00;2.83;;;;;;;10.19;100.00;101699.06;4954790;29;20039;-71
2023/01/06 01:52:01;;;;;;;5.47;2.65;;;;;;;10.21;100.00;101693.81;4954695;29;20489;-70
2023/01/06 01:54:31;;;;;;;7.03;2.50;;;;;;;10.20;100.00;101689.41;4954872;29;20043;-70
2023/01/06 01:57:05;;;;;;;5.40;2.50;;;;;;;10.19;99.97;101690.22;4954653;28;20030;-70
2023/01/06 01:59:33;;;;;;;8.55;2.20;;;;;;;10.18;99.54;101686.69;4954670;29;20035;-69
2023/01/06 02:01:59;;;;;;;7.28;2.38;;;;;;;10.19;99.65;101680.59;4954457;29;20150;-71
2023/01/06 02:04:27;;;;;;;6.20;2.38;;;;;;;10.21;98.99;101696.47;4954445;28;20118;-70
2023/01/06 02:06:53;;;;;;;5.50;2.28;;;;;;;10.18;98.69;101684.06;4954619;28;20027;-71
2023/01/06 02:09:39;;;;;;;5.07;2.30;;;;;;;10.19;99.11;101670.03;4954735;28;20351;-69
2023/01/06 02:12:04;;;;;;;5.50;2.00;;;;;;;10.18;97.99;101680.53;4954552;29;20604;-70
2023/01/06 02:14:31;;;;;;;5.70;2.42;;;;;;;10.19;98.13;101682.31;4954371;28;20114;-69
2023/01/06 02:17:03;;;;;;;6.32;2.22;;;;;;;10.18;98.35;101676.13;4954455;29;20027;-70
2023/01/06 02:19:47;;;;;;;4.75;2.17;;;;;;;10.19;98.27;101690.22;4937270;29;20035;-69
2023/01/06 02:22:29;;;;;;;8.25;2.20;;;;;;;10.18;98.45;101686.69;4937212;29;20397;-70
2023/01/06 02:25:12;;;;;;;4.78;2.20;;;;;;;10.18;98.06;101673.50;4954325;29;20118;-70
2023/01/06 02:28:02;;;;;;;8.85;2.30;;;;;;;10.19;97.82;101682.31;4954370;29;20474;-70
2023/01/06 02:31:15;;;;;;;5.07;2.20;;;;;;;10.19;97.91;101680.59;4954182;29;20031;-70
2023/01/06 02:33:46;;;;;;;;;;;;;;;10.26;98.41;101679.91;4945707;29;20039;-69
2023/01/06 02:36:26;;;;;;;5.22;1.95;;;;;;;10.22;97.73;101674.47;4955562;28;20372;-69
2023/01/06 02:39:07;;;;;;;6.18;2.30;;;;;;;10.19;96.91;101666.47;4957887;29;20027;-70
2023/01/06 02:41:50;;;;;;;5.93;1.90;;;;;;;10.22;96.00;101653.34;4957778;29;20032;-68
2023/01/06 02:44:25;;;;;;;4.75;1.85;;;;;;;10.21;96.10;101649.81;4957864;29;20063;-70
2023/01/06 02:47:14;;;;;;;7.05;2.20;;;;;;;10.20;95.62;101645.38;4957483;29;20031;-70
2023/01/06 02:49:55;;;;;;;4.05;2.00;;;;;;;10.22;95.81;101643.66;4957782;29;20035;-69
2023/01/06 02:52:23;;;;;;;4.65;1.90;;;;;;;10.23;94.97;101634.88;4957633;29;20122;-69
2023/01/06 02:54:57;;;;;;;4.63;2.25;;;;;;;10.20;95.22;101633.94;4957505;28;20542;-69
2023/01/06 02:57:26;;;;;;;6.03;2.10;;;;;;;10.22;95.21;101626.94;4957496;29;20420;-70
2023/01/06 03:00:21;;;;;;;3.92;2.10;;;;;;;10.22;95.30;101621.66;4957424;29;20039;-70
2023/01/06 03:03:15;;;;;;;5.53;2.05;;;;;;;10.22;95.11;101626.94;4957403;29;20560;-69
2023/01/06 03:05:44;;;;;;;6.07;1.92;;;;;;;10.23;94.15;101626.06;4955902;29;20043;-69
2023/01/06 03:08:20;;;;;;;3.78;1.83;;;;;;;10.23;94.45;101616.38;4957263;28;20112;-69
2023/01/06 03:10:48;;;;;;;6.47;2.33;;;;;;;10.22;94.55;101613.72;4957640;29;20078;-69
2023/01/06 03:13:25;;;;;;;7.10;1.90;;;;;;;10.25;94.14;101616.47;4957352;28;20038;-69
2023/01/06 03:15:51;;;;;;;3.63;2.08;;;;;;;10.27;93.84;101625.31;4957316;29;20028;-69
2023/01/06 03:18:16;;;;;;;3.83;1.90;;;;;;;10.27;93.59;101615.66;4957099;28;20380;-70
2023/01/06 03:20:42;;;;;;;4.40;1.77;;;;;;;10.26;93.25;101624.44;4957084;28;20090;-69
2023/01/06 03:23:07;;;;;;;5.47;1.98;;;;;;;10.27;92.85;101615.66;4939783;29;20032;-69
2023/01/06 03:25:33;;;;;;;5.65;2.13;;;;;;;10.28;92.74;101606.00;4939715;29;20110;-69
2023/01/06 03:27:58;;;;;;;4.18;2.20;;;;;;;10.27;93.21;101607.72;4956876;29;20489;-69
2023/01/06 03:30:29;;;;;;;5.90;1.95;;;;;;;10.28;92.36;101608.66;4956690;29;20027;-69
2023/01/06 03:33:04;;;;;;;7.90;1.85;;;;;;;10.27;92.66;101605.06;4956902;29;20028;-69
2023/01/06 03:35:30;;;;;;;5.78;2.30;;;;;;;10.28;93.08;101613.94;4956920;29;20027;-69
2023/01/06 03:38:21;;;;;;;6.55;2.10;;;;;;;10.28;93.00;101606.00;4956903;28;20506;-71
2023/01/06 03:40:58;;;;;;;8.45;2.25;;;;;;;10.27;93.30;101614.75;4956773;29;20031;-69
2023/01/06 03:43:30;;;;;;;4.55;1.90;;;;;;;10.27;93.04;101591.88;4956706;29;20037;-69
2023/01/06 03:45:58;;;;;;;4.00;1.70;;;;;;;10.27;92.46;101577.78;4956710;29;20067;-69
2023/01/06 03:48:29;;;;;;;4.95;1.80;;;;;;;10.25;92.86;101576.88;4955612;28;20054;-69
2023/01/06 03:51:10;;;;;;;2.45;1.60;;;;;;;10.26;93.52;101589.22;4939337;29;20031;-69
2023/01/06 03:53:45;;;;;;;2.65;1.67;;;;;;;10.25;93.41;101604.16;4956556;29;20035;-69
2023/01/06 03:56:23;;;;;;;4.90;2.00;;;;;;;10.25;93.54;101598.88;4956779;29;20436;-69
2023/01/06 03:58:54;;;;;;;5.20;2.05;;;;;;;10.22;93.35;101593.47;4956430;29;20019;-68
2023/01/06 04:01:22;;;;;;;7.68;1.95;;;;;;;10.22;93.60;101593.47;4956230;29;20098;-69
2023/01/06 04:03:51;;;;;;;6.43;1.90;;;;;;;10.24;93.40;101591.81;4956425;28;20031;-69
2023/01/06 04:06:16;;;;;;;4.97;1.90;;;;;;;10.25;93.34;101587.44;4956230;29;20019;-69
2023/01/06 04:08:42;;;;;;;2.83;1.80;;;;;;;10.25;93.20;101580.41;4956203;29;20393;-68
2023/01/06 04:11:07;;;;;;;8.05;1.90;;;;;;;10.25;93.98;101583.03;4956125;28;20106;-69
2023/01/06 04:13:33;;;;;;;6.25;1.80;;;;;;;10.24;93.68;101567.13;4939215;29;20047;-69
2023/01/06 04:15:58;;;;;;;7.05;2.10;;;;;;;10.22;94.11;101569.72;4956021;28;20035;-70
2023/01/06 04:18:23;;;;;;;5.90;1.85;;;;;;;10.25;93.72;101568.94;4956333;29;20122;-69
2023/01/06 04:20:49;;;;;;;6.15;2.00;;;;;;;10.25;93.74;101561.91;4938705;29;20508;-70
2023/01/06 04:23:14;;;;;;;5.10;1.70;;;;;;;10.30;93.51;101562.00;4955845;28;20023;-70
2023/01/06 04:25:39;;;;;;;5.15;1.80;;;;;;;10.32;93.09;101544.47;4955796;28;20433;-69
2023/01/06 04:28:05;;;;;;;4.22;1.90;;;;;;;10.29;93.54;101547.03;4955767;29;20042;-70
2023/01/06 04:30:30;;;;;;;4.65;1.88;;;;;;;10.27;93.80;101544.31;4955804;28;20031;-69
2023/01/06 04:32:56;;;;;;;4.65;1.90;;;;;;;10.28;93.97;101538.22;4938689;29;20030;-69
2023/01/06 04:35:21;;;;;;;3.42;1.70;;;;;;;10.32;93.32;101535.63;4955686;29;20034;-70
2023/01/06 04:37:47;;;;;;;4.22;1.95;;;;;;;10.30;93.50;101535.59;4955728;28;20074;-70
2023/01/06 04:40:12;;;;;;;3.97;1.73;;;;;;;10.34;92.96;101526.00;4955601;29;20064;-70
2023/01/06 04:45:21;;;;;;;4.35;1.75;;;;;;;10.35;92.73;101523.38;4955618;29;20066;-70
2023/01/06 04:47:47;;;;;;;5.68;1.80;;;;;;;10.36;92.89;101516.34;4955352;29;20440;-69
2023/01/06 04:50:12;;;;;;;3.60;1.80;;;;;;;10.34;92.89;101515.44;4955507;28;20054;-69
2023/01/06 04:52:38;;;;;;;3.45;1.80;;;;;;;10.35;92.66;101506.63;4955635;29;20073;-69
2023/01/06 04:55:04;;;;;;;2.03;1.50;;;;;;;10.33;93.12;101514.53;4955700;29;20425;-69
2023/01/06 04:57:30;;;;;;;5.50;1.70;;;;;;;10.35;92.85;101514.56;4955337;29;20059;-69
2023/01/06 04:59:55;;;;;;;3.17;1.75;;;;;;;10.34;93.17;101512.78;4955227;28;20143;-69
2023/01/06 05:02:20;;;;;;;2.83;1.60;;;;;;;10.34;92.93;101500.47;4938197;29;20413;-69
2023/01/06 05:04:46;;;;;;;3.50;1.70;;;;;;;10.35;92.69;101507.53;4955107;29;20039;-69
2023/01/06 05:07:11;;;;;;;2.35;1.70;;;;;;;10.35;93.13;101504.88;4955268;29;20027;-70
2023/01/06 05:09:36;;;;;;;5.75;1.63;;;;;;;10.37;92.80;101515.50;4955466;28;20569;-69
2023/01/06 05:12:02;;;;;;;4.50;1.92;;;;;;;10.37;92.62;101524.31;4955113;29;20035;-69
2023/01/06 05:14:27;;;;;;;2.22;1.40;;;;;;;10.36;92.59;101489.91;4937861;29;20059;-69
2023/01/06 05:16:53;;;;;;;3.33;1.60;;;;;;;10.39;92.47;101492.63;4954992;28;20027;-69
2023/01/06 05:19:18;;;;;;;4.28;1.90;;;;;;;10.36;92.92;101495.19;4955069;28;20445;-69
2023/01/06 05:21:43;;;;;;;4.50;1.80;;;;;;;10.35;92.67;101496.06;4937795;29;20043;-69
2023/01/06 05:24:10;;;;;;;3.15;1.77;;;;;;;10.35;92.75;101501.34;4954747;28;20034;-70
2023/01/06 05:26:35;;;;;;;2.78;1.50;;;;;;;10.34;93.00;101496.94;4954891;29;20031;-68
2023/01/06 05:29:00;;;;;;;4.35;1.90;;;;;;;10.34;93.10;101499.56;4955106;29;20032;-69
2023/01/06 05:31:26;;;;;;;4.93;1.73;;;;;;;10.35;92.90;101496.06;4954804;29;20496;-70
2023/01/06 05:33:51;;;;;;;2.38;1.38;;;;;;;10.37;93.17;101502.28;4954900;29;20054;-69
2023/01/06 05:36:18;;;;;;;3.95;1.75;;;;;;;10.35;92.91;101488.16;4954768;28;20031;-69
2023/01/06 05:38:44;;;;;;;3.58;1.50;;;;;;;10.33;93.08;101498.69;4954717;29;20115;-68
2023/01/06 05:41:10;;;;;;;4.85;1.70;;;;;;;10.33;93.23;101501.34;4954733;29;20038;-69
2023/01/06 05:43:36;;;;;;;2.85;1.60;;;;;;;10.34;93.07;101504.84;4954770;28;20031;-68
2023/01/06 05:46:09;;;;;;;2.75;1.60;;;;;;;10.28;93.12;101511.78;4954608;29;20034;-68
2023/01/06 05:48:36;;;;;;;4.35;1.65;;;;;;;10.34;92.48;101515.44;4954565;29;20082;-69
2023/01/06 05:51:09;;;;;;;2.92;1.67;;;;;;;10.37;92.79;101495.25;4954723;29;20472;-69
2023/01/06 05:53:37;;;;;;;6.10;1.70;;;;;;;10.36;93.04;101501.38;4954665;29;20117;-69
2023/01/06 05:56:05;;;;;;;4.10;1.83;;;;;;;10.36;92.62;101513.69;4954588;29;20495;-69
2023/01/06 05:58:32;;;;;;;2.78;1.70;;;;;;;10.40;92.52;101495.31;4954551;29;20031;-69
2023/01/06 06:00:58;;;;;;;2.85;1.58;;;;;;;10.38;92.65;101499.69;4954430;29;20027;-69
2023/01/06 06:03:24;;;;;;;2.15;1.60;;;;;;;10.37;92.73;101495.25;4954842;29;20047;-68
2023/01/06 06:05:49;;;;;;;1.60;1.50;;;;;;;10.39;93.07;101509.38;4954584;28;20031;-69
2023/01/06 06:08:15;;;;;;;3.60;1.70;;;;;;;10.39;92.99;101500.56;4954577;29;20032;-68
2023/01/06 06:10:40;;;;;;;3.58;1.73;;;;;;;10.36;93.36;101500.47;4954948;28;20102;-69
2023/01/06 06:13:05;;;;;;;5.28;1.70;;;;;;;10.36;93.49;101509.31;4958329;29;20110;-69
2023/01/06 06:15:31;;;;;;;3.67;1.60;;;;;;;10.38;93.39;101515.53;4958506;29;20027;-68
2023/01/06 06:17:56;;;;;;;6.03;1.67;;;;;;;10.38;93.15;101518.16;4958260;28;20020;-68
2023/01/06 06:20:23;;;;;;;2.83;1.60;;;;;;;10.32;93.58;101491.63;4958251;28;20035;-69
2023/01/06 06:22:48;;;;;;;4.13;1.90;;;;;;;10.38;93.75;101501.44;4958135;29;20055;-68
2023/01/06 06:25:13;;;;;;;2.30;1.60;;;;;;;10.36;94.02;101501.38;4958027;28;20504;-68
2023/01/06 06:27:39;;;;;;;5.00;2.10;;;;;;;10.36;93.47;101513.69;4958020;29;20032;-68
2023/01/06 06:30:05;;;;;;;2.70;1.63;;;;;;;10.37;93.68;101508.47;4940565;29;20523;-69
2023/01/06 06:32:31;;;;;;;3.03;1.77;;;;;;;10.37;93.82;101502.28;4940652;29;20035;-68
2023/01/06 06:34:57;;;;;;;3.53;1.73;;;;;;;10.37;93.76;101499.66;4957885;29;20027;-68
2023/01/06 06:37:23;;;;;;;3.17;1.60;;;;;;;10.36;94.44;101504.03;4957841;29;20031;-68
2023/01/06 06:39:48;;;;;;;3.63;1.70;;;;;;;10.38;93.98;101501.44;4957429;28;20043;-68
2023/01/06 06:42:13;;;;;;;3.40;1.70;;;;;;;10.37;94.00;101507.59;4957914;28;20126;-68
2023/01/06 06:44:39;;;;;;;3.42;2.10;;;;;;;10.39;94.07;101506.72;4957657;29;20032;-68
2023/01/06 06:47:04;;;;;;;3.92;1.90;;;;;;;10.37;95.09;101503.19;4957478;29;20401;-68
2023/01/06 06:49:30;;;;;;;4.75;1.88;;;;;;;10.38;95.36;101501.44;4940507;29;20109;-68
2023/01/06 06:51:55;;;;;;;2.60;1.73;;;;;;;10.35;95.52;101504.00;4957912;29;20035;-68
2023/01/06 06:54:21;;;;;;;3.13;1.70;;;;;;;10.33;95.89;101493.41;4957838;28;20158;-68
2023/01/06 06:56:46;;;;;;;3.97;1.60;;;;;;;10.32;96.25;101503.91;4957579;28;20424;-68
2023/01/06 06:59:11;;;;;;;7.38;1.83;;;;;;;10.28;96.88;101495.06;4957509;28;20031;-68
2023/01/06 07:01:37;;;;;;;4.13;1.92;;;;;;;10.23;96.99;101508.09;4940238;29;20442;-68
2023/01/06 07:04:02;;;;;;;5.55;2.00;;;;;;;10.25;97.54;101509.06;4940156;29;20031;-68
2023/01/06 07:06:28;;;;;;;4.63;1.95;;;;;;;10.22;97.37;101506.31;4957345;29;20031;-68
2023/01/06 07:08:53;;;;;;;5.93;1.98;;;;;;;10.24;97.97;101509.03;4957313;29;20058;-68
2023/01/06 07:11:19;;;;;;;4.18;2.00;;;;;;;10.22;98.37;101521.28;4957543;28;20484;-69
2023/01/06 07:13:45;;;;;;;5.35;2.10;;;;;;;10.23;98.35;101526.59;4957420;29;20032;-68
2023/01/06 07:16:11;;;;;;;3.03;1.88;;;;;;;10.18;99.49;101524.72;4940206;29;20027;-69
2023/01/06 07:18:37;;;;;;;6.80;2.20;;;;;;;10.18;99.82;101528.22;4957097;29;20488;-69
2023/01/06 07:21:02;;;;;;;6.95;2.10;;;;;;;10.15;100.00;101516.69;4940017;29;20035;-68
2023/01/06 07:23:29;;;;;;;7.25;2.08;;;;;;;10.16;100.00;101526.44;4955887;28;20019;-68
2023/01/06 07:25:57;;;;;;;3.97;1.90;;;;;;;10.07;100.00;101521.84;4956873;29;20478;-69
2023/01/06 07:28:24;;;;;;;3.05;2.08;;;;;;;10.04;100.00;101525.28;4957029;29;20105;-69
2023/01/06 07:30:49;;;;;;;3.47;2.08;;;;;;;10.07;100.00;101516.56;4956782;28;20508;-68
2023/01/06 07:33:15;;;;;;;3.05;2.05;;;;;;;10.03;100.00;101514.69;4956924;29;20035;-68
2023/01/06 07:35:41;;;;;;;3.72;2.33;;;;;;;10.00;100.00;101523.41;4956728;29;20027;-68
2023/01/06 07:38:07;;;;;;;2.47;2.00;;;;;;;10.02;100.00;101536.66;4956884;29;20030;-68
2023/01/06 07:40:33;;;;;;;3.42;2.10;;;;;;;10.01;100.00;101537.50;4956675;28;20031;-69
2023/01/06 07:43:06;;;;;;;5.40;2.30;;;;;;;9.99;100.00;101540.13;4956656;28;20043;-68
2023/01/06 07:45:32;;;;;;;4.40;2.20;;;;;;;9.99;100.00;101548.03;4956502;29;20070;-68
2023/01/06 07:47:58;;;;;;;3.03;2.17;;;;;;;9.97;100.00;101543.56;4956549;28;20118;-68
2023/01/06 07:50:24;;;;;;;3.58;2.00;;;;;;;9.92;100.00;101532.00;4956650;29;20035;-68
2023/01/06 07:52:49;;;;;;;3.70;2.10;;;;;;;9.96;100.00;101541.78;4956505;28;20110;-68
2023/01/06 07:55:15;;;;;;;2.92;2.00;;;;;;;9.97;100.00;101552.38;4939316;29;20483;-68
2023/01/06 07:57:40;;;;;;;4.82;2.25;;;;;;;10.00;100.00;101548.94;4939227;29;20482;-69
2023/01/06 08:00:06;;;;;;;3.75;2.28;;;;;;;9.99;100.00;101549.78;4956260;28;20031;-69
2023/01/06 08:02:31;;;;;;;6.18;2.05;;;;;;;9.99;100.00;101552.44;4956375;29;20024;-68
2023/01/06 08:04:57;;;;;;;3.60;2.10;;;;;;;10.00;100.00;101557.75;4956295;28;20059;-69
2023/01/06 08:07:22;;;;;;;3.40;2.17;;;;;;;9.99;100.00;101555.97;4956282;29;20039;-69
2023/01/06 08:09:48;;;;;;;3.60;2.13;;;;;;;10.05;100.00;101571.06;4939145;29;20057;-69
2023/01/06 08:12:13;;;;;;;6.50;2.38;;;;;;;10.07;100.00;101581.69;4956205;28;20102;-69
2023/01/06 08:14:38;;;;;;;4.78;2.30;;;;;;;10.06;100.00;101579.88;4956151;29;20461;-68
2023/01/06 08:17:04;;;;;;;3.00;2.40;;;;;;;10.10;100.00;101590.53;4956113;29;20027;-68
2023/01/06 08:19:29;;;;;;;3.92;2.10;;;;;;;10.11;100.00;101583.53;4956156;29;20031;-68
2023/01/06 08:21:55;;;;;;;3.17;2.28;;;;;;;10.14;100.00;101587.13;4956275;29;20066;-68
2023/01/06 08:24:20;;;;;;;4.32;2.10;;;;;;;10.13;100.00;101590.63;4955933;28;20039;-68
2023/01/06 08:26:45;;;;;;;3.03;2.30;;;;;;;10.19;100.00;101581.94;4956052;29;20473;-68
2023/01/06 08:29:11;;;;;;;4.53;2.40;;;;;;;10.20;100.00;101589.03;4955426;28;20040;-68
2023/01/06 08:31:36;;;;;;;9.38;2.67;;;;;;;10.24;100.00;101589.19;4955544;28;20035;-67
2023/01/06 08:34:02;;;;;;;12.48;3.08;;;;;;;10.26;100.00;101590.09;4955318;28;20465;-67
2023/01/06 08:36:27;;;;;;;4.03;2.58;;;;;;;10.28;100.00;101600.72;4956042;28;20527;-67
2023/01/06 08:38:53;;;;;;;5.20;2.60;;;;;;;10.28;100.00;101598.06;4955635;28;20035;-68
2023/01/06 08:41:19;;;;;;;3.00;2.40;;;;;;;10.31;100.00;101605.16;4955863;29;20032;-68
2023/01/06 08:43:45;;;;;;;5.07;2.50;;;;;;;10.31;100.00;101616.63;4955530;28;20034;-67
2023/01/06 08:46:16;;;;;;;4.10;2.40;;;;;;;10.34;100.00;101621.97;4955445;28;20055;-67
2023/01/06 08:48:42;;;;;;;3.60;2.70;;;;;;;10.37;100.00;101630.00;4955447;29;20046;-68
2023/01/06 08:51:17;;;;;;;3.88;2.85;;;;;;;10.39;100.00;101630.03;4955389;29;20385;-68
2023/01/06 08:53:43;;;;;;;4.40;2.80;;;;;;;10.40;100.00;101629.16;4955461;28;20031;-68
2023/01/06 08:56:13;;;;;;;5.82;3.10;;;;;;;10.40;100.00;101623.88;4955422;28;20392;-68
2023/01/06 08:58:39;;;;;;;3.42;2.90;;;;;;;10.42;100.00;101635.38;4955512;28;20024;-69
2023/01/06 09:01:04;;;;;;;4.07;2.80;;;;;;;10.44;100.00;101641.59;4954769;29;20035;-68
2023/01/06 09:03:29;;;;;;;3.95;3.00;;;;;;;10.42;100.00;101638.91;4955223;29;20027;-68
2023/01/06 09:05:56;;;;;;;4.28;3.03;;;;;;;10.48;100.00;101649.63;4955076;28;20023;-68
2023/01/06 09:08:23;;;;;;;5.15;3.50;;;;;;;10.45;100.00;101654.84;4955040;29;20027;-69
2023/01/06 09:10:48;;;;;;;5.80;3.60;;;;;;;10.47;100.00;101654.88;4955118;28;20031;-68
2023/01/06 09:13:14;;;;;;;5.20;3.45;;;;;;;10.47;100.00;101660.16;4955072;29;20028;-68
2023/01/06 09:15:41;;;;;;;5.28;3.80;;;;;;;10.50;100.00;101654.97;4954364;29;20035;-69
2023/01/06 09:18:09;;;;;;;8.00;4.15;;;;;;;10.50;100.00;101647.03;4955039;28;20143;-68
2023/01/06 09:20:36;;;;;;;13.60;3.70;;;;;;;10.50;100.00;101653.22;4954922;28;20035;-68
2023/01/06 09:23:02;;;;;;;4.13;3.65;;;;;;;10.47;100.00;101649.59;4938163;29;20030;-68
2023/01/06 09:25:27;;;;;;;6.32;3.90;;;;;;;10.49;100.00;101667.28;4954798;29;20063;-68
2023/01/06 09:27:53;;;;;;;5.85;3.85;;;;;;;10.53;100.00;101670.88;4954939;28;20122;-68
2023/01/06 09:30:18;;;;;;;5.45;4.45;;;;;;;10.53;100.00;101668.22;4954089;29;20382;-68
2023/01/06 09:32:44;;;;;;;5.20;4.30;;;;;;;10.55;100.00;101677.09;4955111;29;20033;-68
2023/01/06 09:35:09;;;;;;;5.45;4.40;;;;;;;10.56;100.00;101678.88;4954906;28;20394;-68
2023/01/06 09:37:35;;;;;;;6.85;4.78;;;;;;;10.57;100.00;101683.28;4954776;29;20035;-68
2023/01/06 09:40:01;;;;;;;5.97;4.60;;;;;;;10.59;100.00;101693.94;4954428;29;20028;-68
2023/01/06 09:43:00;;;;;;;6.43;4.13;;;;;;;10.64;100.00;101693.16;4954792;29;20039;-67
2023/01/06 09:45:48;;;;;;;7.50;4.50;;;;;;;10.93;100.00;101696.50;4954841;28;20035;-68
2023/01/06 09:48:20;;;;;;;9.05;4.40;;;;;;;11.04;99.39;101687.03;4958654;29;20071;-67
2023/01/06 09:50:51;;;;;;;7.07;3.85;;;;;;;11.05;98.58;101698.53;4941539;29;20118;-68
2023/01/06 09:53:21;;;;;;;5.88;3.92;;;;;;;11.24;98.90;101705.13;4958619;29;20045;-67
2023/01/06 09:55:56;;;;;;;6.20;3.80;;;;;;;11.45;96.97;101709.97;4958596;28;20110;-68
2023/01/06 09:58:40;;;;;;;6.18;3.70;;;;;;;11.52;96.83;101718.09;4958731;29;20035;-67
2023/01/06 10:01:11;;;;;;;6.32;4.10;;;;;;;11.58;95.85;101727.91;4958546;29;20473;-67
2023/01/06 10:03:36;;;;;;;7.05;4.22;;;;;;;11.64;96.08;101725.38;4958881;29;20042;-67
2023/01/06 10:06:21;;;;;;;5.28;3.90;;;;;;;11.66;96.36;101715.72;4958404;29;20035;-68
2023/01/06 10:09:26;;;;;;;5.30;4.20;;;;;;;11.69;96.03;101722.81;4958486;29;20050;-68
2023/01/06 10:12:25;;;;;;;6.80;4.13;;;;;;;11.66;95.16;101714.81;4925560;29;20117;-68
2023/01/06 10:15:12;;;;;;;6.03;4.32;;;;;;;11.67;95.66;101714.84;4958233;28;20067;-68
2023/01/06 10:18:16;;;;;;;6.80;4.35;;;;;;;11.86;93.78;101717.88;4958644;29;20472;-67
2023/01/06 10:20:58;;;;;;;8.95;5.03;;;;;;;12.01;93.14;101719.06;4949508;29;20050;-67
2023/01/06 10:23:35;;;;;;;5.50;4.20;;;;;;;12.14;92.49;101719.31;4958029;29;20042;-68
2023/01/06 10:26:27;;;;;;;8.20;4.38;;;;;;;12.14;91.24;101716.66;4941046;29;20035;-67
2023/01/06 10:28:56;;;;;;;7.63;4.32;;;;;;;12.10;90.52;101720.13;4958036;29;20024;-67
2023/01/06 10:31:24;;;;;;;5.95;3.95;;;;;;;12.01;90.77;101716.44;4957647;29;20425;-67
2023/01/06 10:33:52;;;;;;;7.10;4.05;;;;;;;12.08;91.56;101716.56;4957099;29;20115;-67
2023/01/06 10:36:28;;;;;;;6.65;3.88;;;;;;;12.13;91.25;101715.78;4940595;29;20477;-67
2023/01/06 10:38:54;;;;;;;5.93;3.28;;;;;;;12.16;90.33;101717.56;4957841;29;20031;-67
2023/01/06 10:41:45;;;;;;;7.50;3.67;;;;;;;12.28;90.57;101713.38;4957881;29;20481;-67
2023/01/06 10:44:12;;;;;;;5.47;3.35;;;;;;;12.45;88.27;101713.66;4957769;29;20023;-67
2023/01/06 10:46:40;;;;;;;6.85;3.00;;;;;;;12.59;87.25;101711.28;4957677;29;20110;-67
2023/01/06 10:49:16;;;;;;;6.25;2.70;;;;;;;12.76;85.91;101720.41;4957581;29;20094;-67
2023/01/06 10:51:44;;;;;;;6.03;2.83;;;;;;;12.87;83.71;101712.59;4940384;29;20033;-67
2023/01/06 10:54:16;;;;;;;6.70;3.10;;;;;;;12.89;83.71;101718.81;4957511;29;20027;-67
2023/01/06 10:56:47;;;;;;;;;;;;;;;12.90;84.26;101715.28;4957685;28;20442;-67
2023/01/06 10:59:13;;;;;;;6.82;2.95;;;;;;;12.83;82.46;101720.47;4957548;29;20016;-67
2023/01/06 11:01:57;;;;;;;7.72;3.60;;;;;;;12.91;84.36;101711.75;4940377;29;20055;-67
2023/01/06 11:04:25;;;;;;;9.10;4.00;;;;;;;13.05;83.77;101714.63;4957495;29;20035;-67
2023/01/06 11:06:57;;;;;;;5.57;3.70;;;;;;;13.27;83.40;101722.06;4957239;29;20070;-67
2023/01/06 11:09:31;;;;;;;6.72;4.00;;;;;;;13.38;82.60;101719.53;4957421;29;20026;-66
2023/01/06 11:12:00;;;;;;;6.75;4.40;;;;;;;13.30;82.51;101725.63;4957377;29;20034;-66
2023/01/06 11:14:30;;;;;;;5.30;3.97;;;;;;;13.13;82.12;101725.34;4957136;29;20035;-66
2023/01/06 11:17:03;;;;;;;7.05;4.55;;;;;;;12.90;81.98;101725.91;4957507;29;20148;-67
2023/01/06 11:19:35;;;;;;;7.72;4.90;;;;;;;12.69;81.86;101718.50;4955913;29;20023;-67
2023/01/06 11:22:02;;;;;;;7.22;4.68;;;;;;;12.51;82.64;101719.09;4957328;28;20057;-67
2023/01/06 11:24:28;;;;;;;9.43;5.15;;;;;;;12.38;82.89;101713.56;4956998;28;20119;-67
2023/01/06 11:26:59;;;;;;;9.93;5.40;;;;;;;12.28;83.49;101712.50;4957314;28;20110;-67
2023/01/06 11:29:35;;;;;;;8.00;5.68;;;;;;;12.26;84.61;101715.13;4956989;29;20027;-67
2023/01/06 11:32:09;;;;;;;6.55;5.22;;;;;;;12.22;83.83;101709.75;4956812;29;20393;-67
2023/01/06 11:34:34;;;;;;;10.52;5.75;;;;;;;12.18;83.53;101719.41;4956965;29;20058;-67